Date,TemperatureHighF,TemperatureAvgF,TemperatureLowF,DewpointHighF,DewpointAvgF,DewpointLowF,HumidityHigh,HumidityAvg,HumidityLow,PressureMaxIn,PressureMinIn,WindSpeedMaxMPH,WindSpeedAvgMPH,GustSpeedMaxMPH,PrecipitationSumIn
2013-1-1,19.5,11.7,0.5,11.0,5.4,-4.5,81,76,67,28.89,28.68,14,4,14,0.00
2013-1-2,35.7,23.1,11.8,27.2,17.4,6.5,82,79,71,28.81,28.61,13,2,13,0.00
2013-1-3,28.9,21.7,15.0,24.1,15.8,10.0,82,78,72,29.00,28.80,25,6,25,0.00
2013-1-4,32.5,20.7,14.1,22.0,14.0,9.6,83,76,63,28.89,28.71,13,5,13,0.00
2013-1-5,29.4,22.6,14.3,21.7,15.7,9.2,83,75,65,28.79,28.58,36,6,36,0.00
2013-1-6,32.5,22.9,10.0,22.4,15.8,5.0,81,74,65,28.91,28.70,31,5,31,0.00
2013-1-7,39.2,32.1,26.2,27.9,23.6,20.7,82,71,63,28.70,28.53,26,7,26,0.00
2013-1-8,39.7,30.7,23.5,29.8,24.3,19.1,83,77,67,28.72,28.43,14,3,14,0.00
2013-1-9,47.1,34.2,23.9,34.1,26.5,19.2,83,74,59,29.02,28.71,13,2,13,0.00
2013-1-10,38.8,35.8,32.7,32.2,28.5,23.8,87,75,61,28.91,28.28,16,3,16,0.08
2013-1-11,51.0,39.2,25.5,46.1,34.8,17.3,89,85,71,28.35,27.97,20,7,20,0.02
2013-1-12,25.5,17.6,9.6,17.5,7.7,1.1,72,65,57,28.73,28.35,27,7,27,0.02
2013-1-13,20.1,11.6,6.0,6.8,2.1,-1.2,73,66,54,28.91,28.69,28,5,28,0.00
2013-1-14,28.2,15.6,5.7,14.7,6.1,-1.1,77,66,53,29.04,28.90,9,1,9,0.00
2013-1-15,34.7,22.7,11.8,19.6,12.6,3.9,73,65,52,28.92,28.62,16,5,16,0.00
2013-1-16,50.3,35.0,21.3,34.5,24.8,14.0,78,67,51,28.83,28.48,16,6,16,0.00
2013-1-17,31.2,27.3,22.1,27.6,23.3,17.8,87,85,78,29.04,28.82,16,2,16,0.00
2013-1-18,49.8,38.5,29.1,33.8,28.9,25.7,87,69,52,28.86,28.48,20,7,20,0.00
2013-1-19,50.9,38.0,20.8,32.9,26.2,9.1,75,63,48,28.93,28.45,32,9,32,0.00
2013-1-20,20.8,15.7,10.2,9.0,6.2,3.1,74,66,56,28.99,28.89,22,8,22,0.00
2013-1-21,14.1,9.6,4.4,7.6,-2.4,-7.2,75,58,50,29.03,28.92,27,8,27,0.00
2013-1-22,23.9,13.9,9.1,12.7,5.1,-1.3,74,68,59,28.96,28.81,10,1,10,0.00
2013-1-23,27.5,17.5,8.4,17.2,8.9,-0.8,75,69,60,29.08,28.72,25,11,25,0.00
2013-1-24,17.7,10.1,1.0,5.1,-1.1,-8.2,67,60,53,29.11,28.75,20,6,20,0.00
2013-1-25,46.0,27.6,13.6,28.3,15.7,2.8,76,61,47,28.82,28.68,18,3,18,0.00
2013-1-26,49.6,31.0,15.9,30.3,19.9,9.2,76,64,47,28.83,28.59,20,7,20,0.00
2013-1-27,40.2,37.2,33.9,36.5,31.9,23.8,88,82,60,28.58,28.29,18,5,18,0.08
2013-1-28,42.4,37.3,33.0,39.4,34.3,30.1,90,89,88,28.46,28.15,10,2,10,0.00
2013-1-29,39.3,33.3,29.6,36.6,29.1,26.1,90,85,80,28.30,28.16,34,14,34,0.02
2013-1-30,29.6,21.1,14.3,26.0,16.3,8.2,87,81,73,28.53,28.22,52,15,52,0.02
2013-1-31,14.7,6.5,-0.2,8.6,-2.6,-9.0,77,66,56,29.00,28.52,38,11,38,0.02
2013-2-1,26.2,19.6,2.8,17.1,10.8,-4.4,72,69,66,28.91,28.64,22,10,22,0.00
2013-2-2,38.3,29.4,21.5,31.0,22.0,15.4,80,74,67,28.79,28.63,19,5,19,0.00
2013-2-3,41.1,33.0,19.2,28.2,22.8,10.9,73,66,56,28.80,28.38,31,8,31,0.00
2013-2-4,35.7,26.2,21.7,27.2,20.2,17.2,83,78,70,28.62,28.36,31,9,31,0.00
2013-2-5,48.5,35.8,24.6,32.2,25.8,20.2,85,68,47,28.66,28.41,23,6,23,0.00
2013-2-6,55.7,41.0,31.6,40.4,30.7,23.0,75,67,54,28.66,28.43,28,5,28,0.00
2013-2-7,39.7,32.2,28.0,32.4,26.2,21.1,83,78,74,28.84,28.47,34,15,34,0.00
2013-2-8,33.9,27.7,24.0,26.1,22.0,19.4,83,79,73,28.92,28.72,16,6,16,0.00
2013-2-9,49.6,36.9,26.6,37.9,29.9,22.0,85,76,63,28.73,28.27,26,12,26,0.00
2013-2-10,43.3,38.3,35.2,39.7,33.3,29.3,87,82,74,28.27,27.88,30,11,30,0.02
2013-2-11,33.9,8.5,0.0,23.0,6.6,-9.6,64,63,63,28.71,28.70,9,4,9,0.00
2013-2-12,19.2,19.2,19.2,14.0,14.0,14.0,80,80,80,28.68,28.68,0,0,0,0.00
2013-2-13,38.8,21.5,0.0,25.6,14.9,-7.4,78,75,59,28.50,28.36,0,0,0,0.00
2013-2-18,28.5,25.1,20.8,21.9,15.9,13.1,80,68,61,28.66,28.42,41,17,41,0.04
2013-2-19,24.4,16.4,8.4,14.2,3.5,-0.3,72,58,39,28.92,28.66,61,14,61,0.00
2013-2-20,22.8,10.7,0.0,7.7,0.9,-10.9,71,63,51,28.95,28.80,14,4,14,0.00
2013-2-21,22.6,11.4,0.0,16.4,3.8,-12.0,83,68,53,28.82,28.42,63,11,63,0.00
2013-2-22,19.4,9.7,0.0,14.9,6.0,-4.0,84,83,83,28.62,28.42,19,12,19,0.00
2013-2-23,35.9,24.6,4.2,31.6,20.4,-0.5,86,84,80,28.53,28.41,13,5,13,0.02
2013-2-24,43.5,30.7,21.0,34.6,24.0,16.6,83,76,62,28.66,28.47,17,3,17,0.00
2013-2-25,33.4,27.8,24.6,25.9,22.7,20.2,86,81,73,28.68,28.50,23,11,23,0.00
2013-2-26,30.2,26.4,23.5,25.5,22.6,20.2,88,85,81,28.51,28.37,54,15,54,0.00
2013-2-27,35.7,28.9,22.6,24.8,21.3,16.9,84,73,59,28.69,28.48,42,17,42,0.00
2013-2-28,30.9,26.2,23.7,22.8,19.8,16.9,80,77,70,28.83,28.68,36,17,36,0.00
2013-3-1,27.3,24.1,21.5,19.2,16.4,13.5,81,72,64,28.95,28.80,25,14,25,0.00
2013-3-2,39.3,26.9,14.1,24.4,17.5,8.2,79,68,54,28.93,28.67,13,3,13,0.00
2013-3-3,40.6,32.3,24.4,29.7,24.1,18.7,79,72,64,28.68,28.30,19,7,19,0.00
2013-3-4,43.5,33.5,28.0,31.2,25.7,21.3,84,73,61,28.63,28.24,26,9,26,0.00
2013-3-5,31.8,26.4,22.1,21.3,16.7,13.6,72,66,60,28.98,28.61,47,15,47,0.08
2013-3-6,39.7,27.9,19.2,24.6,18.2,13.0,77,68,54,29.01,28.81,24,5,24,0.00
2013-3-7,51.6,34.2,21.9,33.4,23.7,15.7,77,66,49,28.84,28.68,20,8,20,0.00
2013-3-8,55.0,40.4,28.0,38.4,30.4,21.7,80,68,53,28.76,28.50,97,6,97,0.09
2013-3-9,54.8,44.4,34.3,49.4,39.6,30.4,88,83,78,28.51,28.13,38,9,38,0.16
2013-3-10,34.3,27.0,21.7,30.4,23.7,18.4,88,87,85,28.54,28.28,53,24,53,0.12
2013-3-11,31.6,23.9,19.2,28.5,20.6,15.6,89,87,86,28.60,28.47,36,8,36,0.00
2013-3-12,32.7,25.9,18.5,29.5,21.1,15.1,88,82,70,28.92,28.60,34,7,34,0.02
2013-3-13,37.5,26.6,14.5,27.9,18.9,9.8,84,73,62,29.03,28.81,12,3,12,0.00
2013-3-14,54.3,41.4,31.1,40.4,30.9,21.5,76,66,58,28.81,28.64,18,5,18,0.00
2013-3-15,57.7,45.9,37.9,43.9,36.8,31.3,84,71,56,28.66,28.32,57,7,57,0.00
2013-3-16,38.3,30.8,26.4,34.1,24.6,21.0,85,78,71,28.77,28.45,36,15,36,0.00
2013-3-17,45.5,33.2,22.2,32.0,23.9,16.1,80,69,56,28.74,28.33,22,5,22,0.00
2013-3-18,36.1,32.5,24.0,30.0,21.0,11.7,87,64,45,28.64,28.31,36,7,36,0.12
2013-3-19,47.1,29.3,0.0,22.8,16.1,-7.4,70,58,36,28.92,28.64,30,12,30,0.00
2013-3-20,34.3,23.7,14.9,14.6,9.4,4.2,71,55,42,28.99,28.68,31,10,31,0.00
2013-3-21,30.9,25.6,20.1,15.9,12.4,8.4,65,57,47,28.68,28.50,15,2,15,0.00
2013-3-22,34.3,30.0,25.5,21.1,17.4,14.7,66,59,53,28.62,28.55,9,1,9,0.00
2013-3-23,36.3,30.8,27.1,26.5,22.5,17.8,86,72,55,28.70,28.60,23,8,23,0.00
2013-3-24,27.6,25.2,23.9,24.0,19.1,16.1,86,78,66,28.68,28.62,32,16,32,0.00
2013-3-25,28.7,25.3,21.5,21.3,19.2,14.5,85,78,66,28.93,28.67,33,16,33,0.00
2013-3-26,42.4,27.1,12.2,26.0,17.0,6.5,80,67,51,28.96,28.81,14,1,14,0.00
2013-3-27,53.2,37.5,24.0,32.8,24.9,17.5,76,61,45,28.85,28.76,19,5,19,0.00
2013-3-28,60.0,43.9,28.5,37.8,30.0,23.1,81,60,41,28.84,28.74,11,2,11,0.00
2013-3-29,69.9,52.2,34.3,41.5,33.9,27.1,76,53,31,28.81,28.64,21,6,21,0.00
2013-3-30,64.2,54.8,46.5,52.2,42.3,33.0,85,65,40,28.68,28.50,74,8,74,0.33
2013-3-31,55.7,45.6,30.7,38.7,32.1,25.8,86,62,34,28.75,28.55,36,11,36,0.06
2013-4-1,39.0,29.4,20.8,27.0,18.2,14.4,86,65,41,28.93,28.75,30,9,30,0.00
2013-4-2,52.5,37.2,20.1,28.9,21.0,10.8,71,53,39,28.91,28.82,12,1,12,0.00
2013-4-3,57.0,41.4,28.4,32.0,24.5,18.3,67,52,38,28.94,28.80,21,6,21,0.00
2013-4-4,62.2,46.7,28.9,39.6,30.6,20.7,75,55,42,28.81,28.64,19,5,19,0.00
2013-4-5,69.2,52.1,32.9,42.5,33.7,24.4,74,52,33,28.76,28.32,31,9,31,0.00
2013-4-6,69.0,58.1,50.3,44.5,39.9,35.9,67,52,38,28.40,28.21,31,8,31,0.00
2013-4-7,75.0,56.0,43.5,48.4,42.0,34.4,82,61,37,28.45,28.24,25,4,25,0.35
2013-4-8,67.8,57.2,46.5,57.7,51.3,42.6,88,81,70,28.32,28.23,18,4,18,0.12
2013-4-9,61.3,45.0,32.7,56.4,41.4,29.5,89,87,81,28.57,28.20,38,15,38,0.61
2013-4-10,36.1,33.7,30.9,32.8,30.7,27.9,90,89,87,28.59,28.39,31,12,31,0.35
2013-4-11,34.5,31.0,28.0,30.2,27.0,24.6,89,85,79,28.41,28.25,18,3,18,0.06
2013-4-12,41.3,34.3,28.5,29.6,26.8,22.8,83,74,63,28.61,28.33,22,7,22,0.00
2013-4-13,55.4,40.9,25.7,40.1,31.2,20.9,83,70,55,28.62,28.23,20,5,20,0.00
2013-4-14,66.7,51.8,41.9,52.5,40.8,29.1,81,67,48,28.29,27.94,37,6,37,0.16
2013-4-15,44.2,38.5,32.5,30.3,26.9,21.9,72,63,56,28.69,28.28,22,4,22,0.00
2013-4-16,50.7,41.8,33.9,32.1,28.8,25.5,74,61,45,28.84,28.66,22,7,22,0.00
2013-4-17,45.6,40.3,35.4,38.5,34.5,31.2,89,81,59,28.76,28.30,37,11,37,0.74
2013-4-18,35.4,32.2,29.8,31.9,28.2,24.7,89,85,76,28.51,28.29,38,14,38,0.55
2013-4-19,44.9,35.3,26.4,25.4,22.6,19.1,77,61,44,28.70,28.46,33,8,33,0.00
2013-4-20,47.3,36.3,24.6,27.6,22.6,17.1,76,59,42,28.85,28.70,17,3,17,0.00
2013-4-21,67.6,53.1,41.9,46.5,37.7,27.5,83,57,40,28.73,28.58,34,9,34,0.22
2013-4-22,51.6,41.8,31.6,48.1,38.1,26.2,89,86,80,28.81,28.54,86,10,86,1.08
2013-4-23,37.2,31.7,26.4,26.2,22.8,18.5,81,70,59,28.86,28.73,36,17,36,0.00
2013-4-24,59.9,39.1,21.5,34.7,25.7,16.1,81,61,33,28.79,28.63,21,3,21,0.00
2013-4-25,69.8,49.8,29.3,39.2,32.3,22.2,80,54,31,28.84,28.61,26,7,26,0.00
2013-4-26,72.6,58.1,48.0,49.7,42.2,34.6,78,56,43,28.78,28.61,22,10,22,0.00
2013-4-27,71.9,54.3,41.3,53.1,44.7,36.5,87,72,48,28.81,28.55,15,3,15,0.00
2013-4-28,82.7,63.7,46.2,54.0,48.4,40.9,84,61,36,28.56,28.30,22,9,22,0.00
2013-4-29,84.7,67.6,53.2,59.3,51.2,43.4,75,58,35,28.38,28.13,20,4,20,0.00
2013-4-30,74.4,67.9,60.8,56.8,49.0,39.0,57,51,45,28.49,28.11,61,13,61,0.00
2013-5-1,60.6,40.1,31.2,41.8,33.9,28.3,89,80,45,29.02,28.50,38,19,38,0.49
2013-5-2,47.6,37.5,31.2,33.4,29.1,26.4,89,73,54,29.12,28.98,38,13,38,1.06
2013-5-3,46.2,38.7,30.0,32.1,28.1,24.1,79,66,55,28.98,28.63,33,14,33,0.00
2013-5-4,41.7,38.0,33.9,37.4,33.5,29.6,88,84,70,28.73,28.56,39,19,39,0.04
2013-5-5,53.6,45.7,39.7,46.4,40.8,36.3,88,83,76,28.77,28.70,22,10,22,0.02
2013-5-6,67.6,54.1,45.6,52.9,46.2,41.7,86,76,57,28.76,28.63,14,5,14,0.00
2013-5-7,74.8,61.5,47.4,55.3,50.7,42.5,85,69,48,28.68,28.55,17,2,17,0.05
2013-5-8,67.8,61.4,56.1,58.1,53.8,49.1,83,76,68,28.58,28.50,13,4,13,0.02
2013-5-9,66.3,58.1,54.8,56.6,53.4,50.2,90,85,68,28.60,28.46,23,8,23,0.53
2013-5-10,68.1,56.2,47.6,52.5,46.8,42.5,87,72,50,28.70,28.60,54,9,54,0.00
2013-5-11,58.6,52.6,42.9,45.1,32.6,24.9,77,48,31,28.85,28.64,38,13,38,0.02
2013-5-12,66.5,51.4,30.7,36.0,29.4,20.3,71,45,31,28.87,28.70,10,0,10,0.00
2013-5-13,84.0,66.0,47.4,52.6,44.1,28.6,62,47,30,28.71,28.45,23,8,23,0.00
2013-5-14,100.2,80.0,60.9,60.5,54.9,47.9,74,46,22,28.46,28.27,23,6,23,0.00
2013-5-15,84.9,73.5,62.4,50.1,45.0,40.8,48,37,28,28.54,28.40,22,3,22,0.00
2013-5-16,85.8,73.1,60.4,63.8,54.5,44.9,63,53,44,28.49,28.38,18,3,18,0.00
2013-5-17,87.6,75.3,62.9,63.4,59.0,54.3,75,58,42,28.52,28.42,97,5,97,0.00
2013-5-18,87.0,75.2,60.9,66.8,61.3,54.2,79,63,47,28.50,28.32,24,7,24,0.02
2013-5-19,77.5,65.5,57.3,65.9,58.8,51.6,87,79,66,28.41,28.13,20,4,20,0.65
2013-5-20,77.1,65.5,55.9,58.5,53.9,48.4,86,68,48,28.27,28.13,20,4,20,0.02
2013-5-21,63.5,56.8,0.0,53.0,46.9,-5.7,80,70,57,28.34,28.22,66,2,66,0.00
2013-5-22,58.4,53.9,50.1,50.1,46.7,44.8,83,77,68,28.58,28.34,22,6,22,0.04
2013-5-23,74.1,59.7,50.1,51.2,46.7,41.4,84,65,41,28.84,28.60,20,6,20,0.00
2013-5-24,75.3,63.1,48.3,52.8,46.9,39.6,73,57,44,28.88,28.63,27,7,27,0.00
2013-5-25,83.8,68.6,57.5,69.9,58.2,45.8,86,70,53,28.71,28.56,21,5,21,0.22
2013-5-26,85.2,71.7,63.1,70.9,63.6,58.0,86,76,61,28.60,28.43,19,5,19,0.00
2013-5-27,78.6,67.4,58.8,66.5,60.4,55.2,90,79,63,28.54,28.19,24,4,24,1.52
2013-5-28,80.6,70.5,60.0,66.6,61.6,56.5,90,74,54,28.35,28.25,19,2,19,0.00
2013-5-29,76.8,68.1,61.5,69.2,62.0,57.6,88,81,73,28.33,28.15,20,8,20,0.79
2013-5-30,76.6,65.2,58.8,64.1,58.3,50.9,89,79,64,28.26,28.12,18,7,18,0.13
2013-5-31,79.7,68.2,55.9,57.6,52.1,44.9,79,58,40,28.35,28.22,24,3,24,0.00
2013-6-1,60.8,56.9,53.4,52.5,47.7,44.0,82,71,56,28.64,28.29,27,8,27,0.06
2013-6-2,72.1,57.8,49.4,50.5,44.9,41.9,81,64,44,28.73,28.61,23,5,23,0.00
2013-6-3,76.2,63.7,50.1,53.4,48.7,42.1,76,60,43,28.64,28.43,22,6,22,0.00
2013-6-4,69.9,63.1,57.9,61.2,55.4,51.3,83,76,65,28.61,28.46,16,2,16,0.06
2013-6-5,72.1,63.5,55.5,59.9,51.6,45.6,88,67,47,28.68,28.57,21,8,21,0.00
2013-6-6,71.4,62.1,51.8,55.3,49.5,43.8,80,65,49,28.62,28.56,20,5,20,0.00
2013-6-7,75.7,62.6,49.6,55.4,49.7,44.1,84,64,46,28.66,28.50,12,1,12,0.00
2013-6-8,68.1,61.3,56.1,61.0,53.6,0.0,88,77,64,28.51,28.27,21,4,21,0.96
2013-6-9,68.3,62.4,57.9,58.8,56.1,53.7,88,80,69,28.45,28.32,25,4,25,0.10
2013-6-10,81.5,67.8,52.5,66.2,58.9,48.5,88,74,54,28.51,28.39,14,1,14,0.00
2013-6-11,90.3,76.1,66.3,71.0,64.9,60.4,82,69,49,28.45,28.30,13,2,13,0.00
2013-6-12,85.1,76.2,61.5,70.4,63.0,51.0,76,64,51,28.65,28.29,37,9,37,0.00
2013-6-13,78.9,66.2,54.6,60.2,55.0,49.2,84,68,45,28.73,28.60,16,2,16,0.00
2013-6-14,91.2,73.5,63.1,73.2,62.9,55.0,86,70,56,28.66,28.36,19,5,19,1.51
2013-6-15,84.0,73.5,66.0,69.4,64.5,60.6,86,74,58,28.58,28.43,27,2,27,0.02
2013-6-16,85.8,74.5,65.1,69.5,62.9,57.3,89,69,47,28.62,28.55,10,1,10,0.00
2013-6-17,86.1,75.8,62.2,62.9,58.8,54.1,78,57,43,28.65,28.55,60,2,60,0.00
2013-6-18,86.1,73.0,61.5,63.3,56.2,51.6,79,57,39,28.70,28.58,10,0,10,0.00
2013-6-19,88.7,76.4,64.9,68.0,60.8,52.3,76,60,45,28.63,28.51,16,4,16,0.00
2013-6-20,90.6,79.8,67.8,72.7,66.9,59.5,78,65,55,28.57,28.42,24,8,24,0.00
2013-6-21,95.5,84.9,76.6,73.7,70.4,67.5,74,63,47,28.49,28.38,26,9,26,0.00
2013-6-22,91.2,80.7,68.1,73.0,66.3,59.0,80,62,50,28.63,28.39,22,7,22,0.08
2013-6-23,82.5,73.9,63.5,69.6,65.2,59.2,87,75,64,28.58,28.35,25,4,25,0.86
2013-6-24,84.0,75.1,64.2,72.7,68.0,59.2,86,79,68,28.64,28.32,20,3,20,0.50
2013-6-25,87.9,79.5,70.1,75.1,69.2,62.9,83,71,59,28.44,28.29,16,3,16,0.00
2013-6-26,91.0,80.1,72.3,70.4,66.9,59.0,88,66,45,28.52,28.27,20,4,20,0.00
2013-6-27,83.3,73.8,67.8,70.0,64.2,58.7,84,72,55,28.64,28.50,18,1,18,0.15
2013-6-28,83.8,75.1,66.2,63.8,60.2,54.1,83,62,42,28.62,28.53,28,7,28,0.00
2013-6-29,79.5,70.7,63.1,59.2,56.0,52.9,72,60,47,28.58,28.51,38,8,38,0.00
2013-6-30,77.5,67.0,56.3,58.2,54.1,49.8,85,65,46,28.73,28.57,20,3,20,0.00
2013-7-1,82.0,69.5,53.7,58.1,53.3,47.3,81,58,41,28.81,28.72,18,3,18,0.00
2013-7-2,88.8,69.5,57.7,63.8,56.1,49.1,80,64,41,28.79,28.67,22,0,22,0.00
2013-7-3,89.2,71.3,57.3,67.2,57.2,51.6,86,64,40,28.69,28.57,13,0,13,0.00
2013-7-4,86.7,74.5,60.6,63.2,57.2,50.9,71,56,41,28.61,28.51,17,5,17,0.00
2013-7-5,89.4,76.6,66.3,67.8,61.2,54.9,70,60,46,28.54,28.44,24,7,24,0.00
2013-7-6,90.1,78.6,69.6,70.1,63.8,58.5,70,61,49,28.50,28.40,21,8,21,0.00
2013-7-7,95.1,82.5,71.9,73.0,66.9,59.9,68,60,48,28.53,28.44,16,3,16,0.00
2013-7-8,92.1,81.5,74.8,74.4,69.7,64.7,76,68,55,28.60,28.51,10,0,10,0.00
2013-7-9,98.0,85.1,74.4,77.8,71.5,66.3,76,65,48,28.59,28.47,11,2,11,0.00
2013-7-10,83.4,75.8,67.8,68.7,63.9,58.5,85,68,50,28.72,28.58,15,4,15,0.00
2013-7-11,87.9,75.6,62.6,65.8,61.4,55.5,80,63,47,28.72,28.58,16,2,16,0.00
2013-7-12,91.5,79.1,66.9,72.6,64.7,56.6,72,62,54,28.63,28.53,18,6,18,0.00
2013-7-13,92.3,80.5,72.1,73.6,66.7,60.5,70,63,52,28.59,28.53,61,6,61,0.00
2013-7-14,88.7,77.8,69.2,65.7,62.5,58.9,73,61,44,28.76,28.59,17,4,17,0.00
2013-7-15,91.5,78.4,63.6,71.6,64.6,56.8,81,64,47,28.81,28.72,13,1,13,0.00
2013-7-16,93.5,81.4,69.2,69.5,66.1,61.8,78,61,45,28.88,28.78,12,1,12,0.00
2013-7-17,95.7,84.0,71.7,73.2,68.9,63.9,77,62,47,28.91,28.78,14,2,14,0.00
2013-7-18,95.1,84.2,73.2,72.4,68.1,64.4,76,60,44,28.79,28.55,15,3,15,0.00
2013-7-19,93.5,82.8,73.9,72.6,65.7,60.0,68,57,41,28.57,28.49,10,1,10,0.00
2013-7-20,91.5,78.4,65.1,65.9,61.4,56.1,73,57,41,28.63,28.47,11,1,11,0.00
2013-7-21,94.6,79.3,68.7,73.2,66.9,60.2,84,67,49,28.55,28.40,13,1,13,0.53
2013-7-22,95.3,81.1,67.4,77.0,69.8,61.3,86,70,52,28.47,28.37,16,2,16,0.00
2013-7-23,82.2,72.6,64.2,66.1,61.6,58.6,85,69,55,28.67,28.46,19,3,19,0.06
2013-7-24,82.7,71.6,58.2,64.2,59.8,52.8,84,68,51,28.70,28.60,16,1,16,0.00
2013-7-25,82.2,73.8,67.8,67.6,62.5,59.1,76,68,59,28.66,28.60,12,2,12,0.00
2013-7-26,75.5,69.2,57.5,57.0,53.4,49.4,76,58,48,28.74,28.70,26,9,26,0.00
2013-7-27,64.2,56.3,51.0,52.8,48.5,44.7,85,76,56,28.75,28.64,13,1,13,0.00
2013-7-28,76.2,63.9,45.5,55.8,48.8,39.7,85,60,42,28.69,28.63,11,0,11,0.00
2013-7-29,66.0,61.9,58.1,60.3,54.8,47.0,87,78,62,28.67,28.61,60,1,60,0.14
2013-7-30,74.6,68.4,63.6,65.3,62.6,59.7,90,82,71,28.73,28.63,14,2,14,0.02
2013-7-31,86.7,72.8,60.9,69.2,63.2,57.6,89,73,54,28.76,28.67,8,0,8,0.00
2013-8-1,88.3,73.5,62.9,71.3,64.4,58.0,86,74,54,28.72,28.47,21,2,21,0.82
2013-8-2,87.4,74.5,65.1,70.7,64.9,0.0,88,74,56,28.60,28.43,100,2,100,0.00
2013-8-5,88.8,76.5,67.4,75.1,69.0,62.3,87,78,63,28.61,28.47,18,1,18,0.00
2013-8-6,90.5,77.3,66.0,76.1,69.5,62.1,89,78,61,28.58,28.42,18,2,18,0.10
2013-8-7,82.5,77.2,67.6,65.3,62.8,60.0,81,62,52,28.62,28.57,14,4,14,0.00
2013-8-8,78.0,69.8,62.7,66.2,61.3,57.1,84,75,62,28.66,28.57,9,0,9,0.00
2013-8-9,80.2,70.5,60.4,68.1,61.2,55.4,87,73,56,28.77,28.63,16,2,16,0.00
2013-8-10,84.9,71.7,57.5,66.7,60.0,52.5,86,68,53,28.82,28.70,12,1,12,0.00
2013-8-11,87.8,75.8,63.1,71.2,64.2,56.1,80,68,56,28.74,28.60,11,1,11,0.00
2013-8-12,84.2,74.6,66.2,68.1,63.6,59.3,87,70,47,28.70,28.62,13,2,13,0.00
2013-8-13,79.8,70.0,60.6,60.3,56.8,50.7,82,64,46,28.79,28.69,8,0,8,0.00
2013-8-14,77.7,66.8,56.8,63.3,56.3,50.9,82,70,56,28.80,28.68,8,0,8,0.00
2013-8-15,68.7,62.7,58.8,61.9,57.2,55.2,88,82,75,28.71,28.64,14,2,14,0.51
2013-8-16,76.6,66.1,60.8,61.2,57.3,55.1,85,74,58,28.78,28.70,12,2,12,0.00
2013-8-17,80.4,68.6,58.8,61.7,57.0,52.8,82,68,52,28.81,28.73,13,2,13,0.00
2013-8-18,80.9,69.6,56.4,62.1,57.4,50.1,81,66,51,28.77,28.66,17,3,17,0.00
2013-8-19,86.5,75.1,64.5,69.6,63.9,57.7,79,69,56,28.69,28.55,19,5,19,0.00
2013-8-20,90.1,79.0,69.4,72.4,67.3,62.9,80,68,55,28.59,28.53,21,3,21,0.00
2013-8-21,92.1,80.4,69.9,73.5,67.9,62.7,79,67,54,28.62,28.55,14,2,14,0.00
2013-8-22,85.6,76.2,68.1,69.3,65.6,62.1,82,70,56,28.73,28.58,15,1,15,0.00
2013-8-23,91.0,78.6,68.7,74.3,67.9,63.8,86,71,51,28.70,28.58,17,2,17,0.00
2013-8-24,92.3,82.1,74.3,73.9,69.4,65.3,75,66,54,28.68,28.61,27,8,27,0.00
2013-8-25,84.5,76.3,73.0,72.1,67.8,66.1,79,75,66,28.74,28.67,14,5,14,0.00
2013-8-26,96.6,90.2,79.5,74.6,71.4,66.7,65,54,48,28.68,28.56,19,5,19,0.00
2013-8-27,97.3,84.2,74.3,73.2,68.0,63.3,71,59,44,28.58,28.52,12,1,12,0.00
2013-8-28,97.7,82.4,69.4,74.2,65.5,59.4,73,58,40,28.63,28.55,9,1,9,0.00
2013-8-29,97.1,83.5,70.5,75.5,69.4,62.5,81,64,47,28.63,28.52,93,3,93,0.00
2013-8-30,97.5,83.3,70.8,77.1,70.2,62.5,81,66,46,28.54,28.46,16,2,16,0.00
2013-8-31,93.9,80.2,70.7,75.4,69.4,65.9,88,71,46,28.53,28.40,10,1,10,0.00
2013-9-1,82.2,75.2,64.2,67.1,61.8,56.3,84,65,45,28.63,28.38,25,7,25,0.00
2013-9-2,78.9,67.2,55.7,59.2,54.6,49.5,88,66,41,28.72,28.63,17,2,17,0.00
2013-9-3,87.2,70.9,53.2,65.3,57.4,47.4,83,64,46,28.71,28.64,12,1,12,0.00
2013-9-4,88.5,74.8,66.0,67.4,60.6,56.3,71,62,46,28.78,28.66,12,2,12,0.00
2013-9-5,90.1,76.4,68.1,67.6,62.4,59.1,78,63,45,28.81,28.71,12,2,12,0.00
2013-9-6,94.8,79.6,67.6,71.4,64.6,57.4,73,61,46,28.72,28.52,17,5,17,0.00
2013-9-7,90.8,78.9,71.9,70.9,67.1,62.8,81,68,50,28.56,28.46,16,2,16,0.00
2013-9-8,93.5,80.5,69.9,75.5,69.8,65.0,87,71,52,28.55,28.40,14,1,14,0.00
2013-9-9,98.2,84.6,73.9,68.9,63.8,58.8,74,52,33,28.48,28.41,14,2,14,0.00
2013-9-10,95.9,77.8,68.3,70.5,63.2,57.3,86,63,41,28.69,28.48,23,1,25,1.30
2013-9-11,83.1,73.2,67.1,71.1,65.8,62.4,88,78,59,28.74,28.65,12,1,12,0.19
2013-9-12,69.8,66.5,61.3,64.0,59.2,49.0,87,78,59,28.82,28.74,6,0,6,0.00
2013-9-13,75.5,64.4,53.4,55.5,50.3,46.0,78,62,46,28.84,28.68,9,0,9,0.00
2013-9-14,77.5,65.5,54.5,56.7,51.3,45.8,73,61,47,28.69,28.49,22,4,22,0.00
2013-9-15,68.1,64.2,61.5,61.4,55.9,51.8,87,75,63,28.85,28.47,23,7,23,0.30
2013-9-16,68.5,60.6,54.1,54.6,51.4,48.7,84,72,61,28.92,28.79,12,1,12,0.03
2013-9-17,72.1,62.6,56.1,66.3,58.2,51.2,89,86,81,28.79,28.49,22,4,22,0.14
2013-9-18,89.4,77.3,65.8,71.9,66.6,61.8,88,71,53,28.50,28.31,21,7,21,0.00
2013-9-19,77.9,72.8,64.9,65.6,62.7,59.7,86,71,63,28.47,28.34,18,4,18,0.22
2013-9-20,59.7,59.6,59.5,44.9,44.8,44.7,58,58,58,28.60,28.60,0,0,0,0.00
2013-9-28,72.5,61.6,50.7,58.8,49.6,40.5,86,66,46,28.66,28.29,22,4,22,0.39
2013-9-29,60.6,59.8,58.2,44.3,40.3,0.0,59,56,54,28.53,28.50,14,6,14,0.00
2013-9-30,80.9,65.2,0.0,55.9,48.5,-6.3,75,56,41,28.51,28.32,58,4,58,0.00
2013-10-1,77.7,66.2,0.0,53.4,48.6,-7.7,77,55,41,28.57,28.38,14,2,14,0.00
2013-10-2,72.1,57.0,0.0,61.4,44.2,-8.3,69,62,53,28.58,28.43,16,2,16,0.00
2013-10-3,72.1,61.9,59.3,61.8,56.7,55.4,88,83,67,28.50,28.36,31,5,31,1.47
2013-10-4,81.3,66.2,49.6,71.0,58.7,37.1,89,77,57,28.51,28.25,19,4,19,0.51
2013-10-5,53.4,45.8,40.1,37.5,33.7,31.0,76,63,52,28.57,28.40,12,1,12,0.00
2013-10-6,49.8,44.9,40.1,43.3,38.8,33.2,84,79,67,28.61,28.38,22,4,22,0.02
2013-10-7,73.7,55.8,37.7,49.9,41.0,32.4,82,60,39,28.69,28.59,12,1,12,0.00
2013-10-8,77.1,63.0,50.5,51.3,44.3,38.7,66,51,39,28.60,28.49,26,8,26,0.00
2013-10-9,78.0,64.1,52.3,54.8,48.4,43.0,72,58,44,28.60,28.53,21,8,21,0.00
2013-10-10,80.2,66.5,55.0,58.9,51.8,46.0,74,60,46,28.59,28.40,22,8,22,0.00
2013-10-11,78.6,65.3,51.0,59.5,50.3,39.2,76,60,34,28.51,28.24,22,7,22,0.00
2013-10-12,65.4,53.4,40.1,40.7,36.1,30.6,74,54,34,28.87,28.50,17,1,17,0.00
2013-10-13,69.0,53.1,36.3,40.8,34.6,26.9,71,51,35,28.99,28.87,11,1,11,0.00
2013-10-14,58.8,52.3,45.5,55.2,43.0,34.0,88,72,51,28.88,28.32,24,5,24,0.61
2013-10-15,54.5,46.8,43.8,48.9,38.5,35.4,82,73,65,28.66,28.40,57,4,57,0.00
2013-10-16,54.6,46.1,41.1,39.3,34.6,29.6,79,66,44,28.68,28.55,16,2,16,0.00
2013-10-17,60.4,45.4,33.6,42.7,34.3,25.7,76,66,50,28.66,28.48,25,4,25,0.00
2013-10-18,50.1,40.3,31.8,36.2,29.9,23.7,81,67,48,28.73,28.60,14,1,14,0.00
2013-10-19,61.3,44.8,28.9,40.4,31.3,22.0,78,61,42,28.60,28.41,58,1,58,0.00
2013-10-20,63.6,51.0,40.1,44.1,36.9,31.7,72,59,43,28.62,28.31,21,5,21,0.00
2013-10-21,53.9,41.0,26.6,37.9,31.5,21.2,81,70,54,28.71,28.53,13,0,13,0.00
2013-10-22,46.5,41.9,35.9,39.5,33.9,28.4,82,73,64,28.71,28.46,26,6,26,0.00
2013-10-23,49.1,37.6,26.7,39.9,31.1,21.3,83,78,66,28.79,28.63,14,2,14,0.00
2013-10-24,46.7,37.6,29.1,31.5,26.1,19.9,81,64,45,28.99,28.79,18,3,18,0.00
2013-10-25,58.1,42.9,28.5,37.1,28.4,19.5,70,58,44,28.99,28.65,16,2,16,0.00
2013-10-26,49.1,41.9,29.8,33.8,28.9,20.5,73,60,47,28.82,28.62,26,6,26,0.00
2013-10-27,69.4,47.4,28.2,43.7,31.9,20.1,74,57,37,28.74,28.42,15,3,15,0.00
2013-10-28,54.1,46.0,39.3,37.6,34.2,30.7,72,64,54,28.78,28.55,17,4,17,0.00
2013-10-29,51.9,46.1,40.8,48.7,41.7,35.6,89,85,72,28.79,28.53,11,1,11,0.20
2013-10-30,55.0,47.0,41.3,52.1,44.0,37.7,90,89,87,28.56,28.37,18,5,18,0.04
2013-10-31,55.5,43.0,34.3,48.4,36.5,30.7,89,79,57,28.37,28.11,21,1,21,0.00
2013-11-1,58.8,44.5,35.9,42.2,35.5,29.5,83,72,45,28.60,28.20,25,4,25,0.05
2013-11-2,56.4,44.5,33.4,39.1,33.1,28.0,81,65,46,28.78,28.59,24,3,24,0.00
2013-11-3,56.4,48.7,40.6,37.4,33.9,29.5,65,57,47,28.67,28.33,33,13,33,0.00
2013-11-4,54.5,48.5,39.5,41.3,36.3,30.0,73,63,52,28.73,28.37,22,6,22,0.00
2013-11-5,44.0,39.3,33.0,38.9,33.9,29.5,89,81,68,28.73,28.42,32,9,32,0.87
2013-11-6,42.0,34.7,29.4,34.3,29.2,23.7,88,81,73,28.85,28.62,32,6,32,0.00
2013-11-7,46.5,35.9,26.4,31.2,25.5,21.5,86,68,43,28.99,28.84,23,4,23,0.00
2013-11-8,61.5,47.5,35.9,38.4,32.0,23.5,66,56,40,28.85,28.34,22,7,22,0.00
2013-11-9,59.3,46.7,38.4,38.3,32.7,28.0,70,59,43,28.94,28.52,20,3,20,0.00
2013-11-10,52.7,41.1,0.0,33.3,28.3,-12.0,75,61,46,28.99,28.73,12,3,12,0.00
2013-11-11,44.9,39.9,16.7,37.5,32.6,7.5,82,75,66,29.34,28.69,22,4,22,0.00
2013-11-12,32.5,20.6,8.9,14.3,8.6,2.9,77,61,43,29.46,29.11,14,2,14,0.00
2013-11-13,53.0,37.3,23.1,31.0,20.9,9.6,60,52,42,29.12,28.58,21,9,21,0.00
2013-11-14,53.2,41.6,33.2,35.5,27.5,21.5,67,57,50,28.59,28.49,10,1,12,0.00
2013-11-15,56.1,42.5,29.8,39.0,31.7,22.8,77,66,51,28.49,28.19,22,5,22,0.00
2013-11-16,63.5,52.2,43.5,50.1,39.4,28.7,85,64,42,28.19,27.93,21,6,21,0.00
2013-11-17,55.0,45.8,34.7,41.6,34.4,27.6,76,65,56,28.66,27.93,22,4,22,0.04
2013-11-18,57.3,40.8,26.7,35.1,26.2,19.9,79,59,33,28.84,28.66,11,2,11,0.00
2013-11-19,61.7,48.5,34.3,37.2,28.4,21.9,62,47,35,28.76,28.47,31,11,31,0.00
2013-11-20,57.0,47.1,36.1,38.0,31.8,27.8,77,56,46,28.53,28.34,22,9,22,0.00
2013-11-21,36.1,26.9,19.0,30.5,20.3,14.6,84,76,67,29.14,28.53,41,18,41,0.00
2013-11-22,27.6,18.6,11.3,14.6,9.5,5.1,83,68,53,29.28,29.13,28,8,28,0.00
2013-11-23,21.0,15.2,10.0,12.2,4.0,-1.0,74,61,48,29.45,29.19,22,8,22,0.00
2013-11-24,31.8,20.0,8.7,15.6,8.1,-0.6,69,60,50,29.30,28.79,20,9,20,0.00
2013-11-25,43.3,31.2,23.7,29.2,19.9,10.8,73,63,52,28.79,28.69,17,5,17,0.00
2013-11-26,29.4,23.8,15.4,21.0,12.3,5.1,79,62,43,29.01,28.78,39,11,39,0.00
2013-11-27,32.9,21.3,5.9,15.5,9.5,-1.2,75,61,47,29.00,28.61,26,5,26,0.00
2013-11-28,32.9,26.2,19.0,20.3,15.2,9.2,76,63,51,29.06,28.64,58,9,58,0.00
2013-11-29,45.3,30.6,16.8,28.6,19.7,10.1,75,65,51,29.05,28.72,18,6,18,0.00
2013-11-30,55.2,38.8,26.0,35.5,25.7,17.9,73,60,44,28.74,28.65,12,1,12,0.00
2013-12-1,49.2,35.2,22.8,32.0,24.2,16.6,80,65,48,28.74,28.44,10,0,10,0.00
2013-12-2,63.5,44.1,30.5,39.2,30.4,22.4,78,60,39,28.44,28.11,13,2,13,0.00
2013-12-3,42.6,36.7,32.3,32.2,28.8,25.8,84,73,60,28.28,28.08,22,8,22,0.00
2013-12-4,32.3,20.3,14.3,28.3,15.1,5.7,87,80,68,28.66,28.23,29,8,29,0.00
2013-12-5,14.7,9.8,5.1,6.4,-0.4,-5.1,70,63,54,29.00,28.64,26,9,26,0.00
2013-12-6,10.2,3.4,-1.8,-3.5,-7.4,-10.6,67,60,51,29.26,29.00,24,12,24,0.00
2013-12-7,11.1,3.5,-5.9,1.1,-6.2,-13.1,71,64,53,29.30,28.96,14,1,14,0.00
2013-12-8,20.8,12.9,5.7,11.5,5.9,0.2,78,73,67,28.96,28.59,10,1,10,0.00
2013-12-9,11.8,4.0,-6.5,2.0,-4.2,-13.3,79,69,59,28.92,28.65,11,2,11,0.00
2013-12-10,28.9,20.5,10.9,21.7,10.8,2.0,80,66,55,28.83,28.63,34,2,34,0.00
2013-12-11,27.1,8.2,-0.7,21.4,-1.1,-9.2,90,65,58,29.24,28.82,38,8,38,0.25
2013-12-12,30.7,19.4,6.6,19.7,10.3,-1.7,73,67,62,29.02,28.65,11,2,11,0.00
2013-12-13,32.9,23.2,14.9,23.4,16.3,9.5,80,75,67,28.67,28.46,22,4,22,0.00
2013-12-14,20.4,16.1,11.8,14.7,9.8,5.7,79,76,71,28.81,28.67,28,9,28,0.00
2013-12-15,28.9,19.9,12.0,19.9,13.4,6.6,80,76,67,28.74,28.53,8,0,8,0.00
2013-12-16,45.3,26.4,11.8,32.2,19.1,6.8,81,74,57,28.76,28.55,22,2,22,0.00
2013-12-17,39.9,31.1,24.6,26.1,20.1,14.3,82,65,43,28.88,28.68,54,4,54,0.00
2013-12-18,55.5,39.7,30.5,34.4,25.6,18.5,67,57,44,28.68,28.30,20,5,20,0.00
2013-12-19,33.4,27.9,17.2,25.6,20.5,12.5,82,74,66,28.47,28.32,34,12,34,0.00
2013-12-20,17.2,13.8,10.5,12.5,8.8,5.8,83,80,77,28.59,28.46,27,10,30,0.00
2013-12-21,23.1,19.1,14.9,15.7,13.0,9.2,81,77,70,28.48,28.37,24,6,24,0.00
2013-12-22,20.1,14.8,7.3,15.1,7.2,-0.7,83,72,60,28.97,28.45,30,14,30,0.00
2013-12-23,9.6,4.2,-0.5,-1.2,-6.5,-11.9,70,61,51,29.17,28.96,54,7,54,0.00
2013-12-24,23.5,12.8,-0.2,19.1,4.8,-11.4,83,70,58,29.09,28.68,26,7,26,0.00
2013-12-25,41.3,27.3,18.3,27.3,18.4,12.7,82,70,50,28.88,28.78,37,6,37,0.00
2013-12-26,48.2,33.0,22.8,27.5,20.2,13.9,75,61,42,28.84,28.68,11,2,11,0.00
2013-12-27,62.6,39.4,22.8,32.5,22.4,13.0,71,53,29,28.84,28.65,18,4,18,0.00
2013-12-28,58.8,39.3,14.0,31.3,23.8,4.3,70,56,33,28.73,28.34,51,11,51,0.04
2013-12-29,13.8,6.7,2.3,4.1,-8.9,-21.0,69,49,34,28.98,28.73,47,15,47,0.02
2013-12-30,33.4,16.7,3.0,21.7,2.4,-12.4,69,53,44,28.86,28.62,28,8,28,0.00
2013-12-31,32.9,15.0,5.5,19.3,5.9,-1.6,75,67,54,28.85,28.59,22,5,22,0.00
2014-1-1,9.1,6.1,1.9,1.9,-0.7,-5.3,77,73,70,28.97,28.69,30,12,30,0.00
2014-1-2,6.6,1.2,-2.3,0.0,-6.1,-10.0,75,71,65,29.04,28.92,63,8,63,0.00